sensor_id;sensor_type;location;lat;lon;timestamp;temperature;humidity
22795;DHT22;11564;50.920;11.612;2022-07-23T00:01:28;18.00;98.80
22795;DHT22;11564;50.920;11.612;2022-07-23T00:03:54;18.00;99.10
22795;DHT22;11564;50.920;11.612;2022-07-23T00:06:20;18.10;99.30
22795;DHT22;11564;50.920;11.612;2022-07-23T00:08:46;18.10;99.40
22795;DHT22;11564;50.920;11.612;2022-07-23T00:11:12;18.00;99.40
22795;DHT22;11564;50.920;11.612;2022-07-23T00:13:38;18.00;99.90
22795;DHT22;11564;50.920;11.612;2022-07-23T00:16:04;18.00;99.90
22795;DHT22;11564;50.920;11.612;2022-07-23T00:18:29;17.90;99.90
22795;DHT22;11564;50.920;11.612;2022-07-23T00:20:55;17.80;99.90
22795;DHT22;11564;50.920;11.612;2022-07-23T00:23:21;17.70;99.90
22795;DHT22;11564;50.920;11.612;2022-07-23T00:25:47;17.70;99.90
22795;DHT22;11564;50.920;11.612;2022-07-23T00:28:12;17.60;99.90
22795;DHT22;11564;50.920;11.612;2022-07-23T00:30:38;17.60;99.90
22795;DHT22;11564;50.920;11.612;2022-07-23T00:33:06;17.60;99.90
22795;DHT22;11564;50.920;11.612;2022-07-23T00:35:34;17.60;99.90
22795;DHT22;11564;50.920;11.612;2022-07-23T00:38:00;17.60;99.90
22795;DHT22;11564;50.920;11.612;2022-07-23T00:40:30;17.70;99.90
22795;DHT22;11564;50.920;11.612;2022-07-23T00:42:56;17.70;99.90
22795;DHT22;11564;50.920;11.612;2022-07-23T00:45:22;17.80;99.90
22795;DHT22;11564;50.920;11.612;2022-07-23T00:47:48;17.80;99.90
22795;DHT22;11564;50.920;11.612;2022-07-23T00:50:14;17.80;99.90
22795;DHT22;11564;50.920;11.612;2022-07-23T00:52:40;17.80;99.90
22795;DHT22;11564;50.920;11.612;2022-07-23T00:55:07;17.80;99.90
22795;DHT22;11564;50.920;11.612;2022-07-23T00:57:34;17.80;99.90
22795;DHT22;11564;50.920;11.612;2022-07-23T00:59:59;17.80;99.90
22795;DHT22;11564;50.920;11.612;2022-07-23T01:02:26;17.80;99.90
22795;DHT22;11564;50.920;11.612;2022-07-23T01:04:52;17.80;99.90
22795;DHT22;11564;50.920;11.612;2022-07-23T01:07:18;17.90;99.90
22795;DHT22;11564;50.920;11.612;2022-07-23T01:09:44;17.80;99.90
22795;DHT22;11564;50.920;11.612;2022-07-23T01:12:11;17.80;99.90
22795;DHT22;11564;50.920;11.612;2022-07-23T01:14:36;17.80;99.90
22795;DHT22;11564;50.920;11.612;2022-07-23T01:17:02;17.90;99.90
22795;DHT22;11564;50.920;11.612;2022-07-23T01:19:28;17.90;99.90
22795;DHT22;11564;50.920;11.612;2022-07-23T01:21:54;17.90;99.90
22795;DHT22;11564;50.920;11.612;2022-07-23T01:24:22;17.90;99.90
22795;DHT22;11564;50.920;11.612;2022-07-23T01:26:48;17.90;99.90
22795;DHT22;11564;50.920;11.612;2022-07-23T01:29:15;18.00;99.90
22795;DHT22;11564;50.920;11.612;2022-07-23T01:31:41;18.00;99.90
22795;DHT22;11564;50.920;11.612;2022-07-23T01:34:08;18.00;99.90
22795;DHT22;11564;50.920;11.612;2022-07-23T01:36:34;18.00;99.90
22795;DHT22;11564;50.920;11.612;2022-07-23T01:39:00;17.80;99.90
22795;DHT22;11564;50.920;11.612;2022-07-23T01:41:26;17.80;99.90
22795;DHT22;11564;50.920;11.612;2022-07-23T01:43:52;17.70;99.90
22795;DHT22;11564;50.920;11.612;2022-07-23T01:46:17;17.70;99.90
22795;DHT22;11564;50.920;11.612;2022-07-23T01:48:43;17.60;99.90
22795;DHT22;11564;50.920;11.612;2022-07-23T01:51:09;17.60;99.90
22795;DHT22;11564;50.920;11.612;2022-07-23T01:53:34;17.60;99.90
22795;DHT22;11564;50.920;11.612;2022-07-23T01:56:00;17.50;99.90
22795;DHT22;11564;50.920;11.612;2022-07-23T01:58:26;17.40;99.90
22795;DHT22;11564;50.920;11.612;2022-07-23T02:00:53;17.30;99.90
22795;DHT22;11564;50.920;11.612;2022-07-23T02:03:20;17.20;99.90
22795;DHT22;11564;50.920;11.612;2022-07-23T02:05:46;17.20;99.90
22795;DHT22;11564;50.920;11.612;2022-07-23T02:08:12;17.10;99.90
22795;DHT22;11564;50.920;11.612;2022-07-23T02:10:37;17.10;99.90
22795;DHT22;11564;50.920;11.612;2022-07-23T02:13:03;17.00;99.90
22795;DHT22;11564;50.920;11.612;2022-07-23T02:15:29;17.10;99.90
22795;DHT22;11564;50.920;11.612;2022-07-23T02:17:55;17.10;99.90
22795;DHT22;11564;50.920;11.612;2022-07-23T02:20:21;17.10;99.90
22795;DHT22;11564;50.920;11.612;2022-07-23T02:22:48;17.10;99.90
22795;DHT22;11564;50.920;11.612;2022-07-23T02:25:13;17.10;99.90
22795;DHT22;11564;50.920;11.612;2022-07-23T02:27:39;17.10;99.90
22795;DHT22;11564;50.920;11.612;2022-07-23T02:30:05;17.10;99.90
22795;DHT22;11564;50.920;11.612;2022-07-23T02:32:31;17.10;99.90
22795;DHT22;11564;50.920;11.612;2022-07-23T02:34:57;17.00;99.90
22795;DHT22;11564;50.920;11.612;2022-07-23T02:37:22;17.00;99.90
22795;DHT22;11564;50.920;11.612;2022-07-23T02:39:48;17.00;99.90
22795;DHT22;11564;50.920;11.612;2022-07-23T02:42:15;17.00;99.90
22795;DHT22;11564;50.920;11.612;2022-07-23T02:44:41;17.00;99.90
22795;DHT22;11564;50.920;11.612;2022-07-23T02:47:06;17.00;99.90
22795;DHT22;11564;50.920;11.612;2022-07-23T02:49:32;17.00;99.90
22795;DHT22;11564;50.920;11.612;2022-07-23T02:51:57;17.00;99.90
22795;DHT22;11564;50.920;11.612;2022-07-23T02:54:23;17.00;99.90
22795;DHT22;11564;50.920;11.612;2022-07-23T02:56:49;17.00;99.90
22795;DHT22;11564;50.920;11.612;2022-07-23T02:59:16;17.00;99.90
22795;DHT22;11564;50.920;11.612;2022-07-23T03:01:42;17.00;99.90
22795;DHT22;11564;50.920;11.612;2022-07-23T03:04:08;17.10;99.90
22795;DHT22;11564;50.920;11.612;2022-07-23T03:06:33;17.10;99.90
22795;DHT22;11564;50.920;11.612;2022-07-23T03:08:59;17.10;99.90
22795;DHT22;11564;50.920;11.612;2022-07-23T03:11:24;17.10;99.90
22795;DHT22;11564;50.920;11.612;2022-07-23T03:13:50;17.10;99.90
22795;DHT22;11564;50.920;11.612;2022-07-23T03:16:15;17.10;99.90
22795;DHT22;11564;50.920;11.612;2022-07-23T03:18:41;17.10;99.90
22795;DHT22;11564;50.920;11.612;2022-07-23T03:21:07;17.10;99.90
22795;DHT22;11564;50.920;11.612;2022-07-23T03:23:32;17.10;99.90
22795;DHT22;11564;50.920;11.612;2022-07-23T03:25:58;17.10;99.90
22795;DHT22;11564;50.920;11.612;2022-07-23T03:28:23;17.10;99.90
22795;DHT22;11564;50.920;11.612;2022-07-23T03:30:49;17.00;99.90
22795;DHT22;11564;50.920;11.612;2022-07-23T03:33:19;16.90;99.90
22795;DHT22;11564;50.920;11.612;2022-07-23T03:35:46;16.80;99.90
22795;DHT22;11564;50.920;11.612;2022-07-23T03:38:13;16.70;99.90
22795;DHT22;11564;50.920;11.612;2022-07-23T03:40:39;16.50;99.90
22795;DHT22;11564;50.920;11.612;2022-07-23T03:43:04;16.50;99.90
22795;DHT22;11564;50.920;11.612;2022-07-23T03:45:31;16.40;99.90
22795;DHT22;11564;50.920;11.612;2022-07-23T03:47:56;16.30;99.90
22795;DHT22;11564;50.920;11.612;2022-07-23T03:50:22;16.20;99.90
22795;DHT22;11564;50.920;11.612;2022-07-23T03:52:48;16.20;99.90
22795;DHT22;11564;50.920;11.612;2022-07-23T03:55:14;16.20;99.90
22795;DHT22;11564;50.920;11.612;2022-07-23T03:57:40;16.20;99.90
22795;DHT22;11564;50.920;11.612;2022-07-23T04:00:07;16.20;99.90
22795;DHT22;11564;50.920;11.612;2022-07-23T04:02:35;16.10;99.90
22795;DHT22;11564;50.920;11.612;2022-07-23T04:05:00;16.10;99.90
22795;DHT22;11564;50.920;11.612;2022-07-23T04:07:26;16.10;99.90
22795;DHT22;11564;50.920;11.612;2022-07-23T04:09:52;16.10;99.90
22795;DHT22;11564;50.920;11.612;2022-07-23T04:12:17;16.10;99.90
22795;DHT22;11564;50.920;11.612;2022-07-23T04:14:43;16.10;99.90
22795;DHT22;11564;50.920;11.612;2022-07-23T04:17:09;16.10;99.90
22795;DHT22;11564;50.920;11.612;2022-07-23T04:19:34;16.10;99.90
22795;DHT22;11564;50.920;11.612;2022-07-23T04:22:05;16.00;99.90
22795;DHT22;11564;50.920;11.612;2022-07-23T04:24:31;16.00;99.90
22795;DHT22;11564;50.920;11.612;2022-07-23T04:26:57;16.00;99.90
22795;DHT22;11564;50.920;11.612;2022-07-23T04:29:23;16.10;99.90
22795;DHT22;11564;50.920;11.612;2022-07-23T04:31:49;16.20;99.90
22795;DHT22;11564;50.920;11.612;2022-07-23T04:34:14;16.20;99.90
22795;DHT22;11564;50.920;11.612;2022-07-23T04:36:40;16.30;99.90
22795;DHT22;11564;50.920;11.612;2022-07-23T04:39:06;16.30;99.90
22795;DHT22;11564;50.920;11.612;2022-07-23T04:41:32;16.40;99.90
22795;DHT22;11564;50.920;11.612;2022-07-23T04:43:59;16.40;99.90
22795;DHT22;11564;50.920;11.612;2022-07-23T04:46:25;16.50;99.90
22795;DHT22;11564;50.920;11.612;2022-07-23T04:48:51;16.60;99.90
22795;DHT22;11564;50.920;11.612;2022-07-23T04:51:16;16.60;99.90
22795;DHT22;11564;50.920;11.612;2022-07-23T04:53:42;16.60;99.90
22795;DHT22;11564;50.920;11.612;2022-07-23T04:56:08;16.50;99.90
22795;DHT22;11564;50.920;11.612;2022-07-23T04:58:33;16.50;99.90
22795;DHT22;11564;50.920;11.612;2022-07-23T05:00:59;16.60;99.90
22795;DHT22;11564;50.920;11.612;2022-07-23T05:03:24;16.60;99.90
22795;DHT22;11564;50.920;11.612;2022-07-23T05:05:50;16.60;99.90
22795;DHT22;11564;50.920;11.612;2022-07-23T05:08:16;16.60;99.90
22795;DHT22;11564;50.920;11.612;2022-07-23T05:10:41;16.70;99.90
22795;DHT22;11564;50.920;11.612;2022-07-23T05:13:07;16.70;99.90
22795;DHT22;11564;50.920;11.612;2022-07-23T05:15:32;16.60;99.90
22795;DHT22;11564;50.920;11.612;2022-07-23T05:17:58;16.60;99.90
22795;DHT22;11564;50.920;11.612;2022-07-23T05:20:24;16.60;99.90
22795;DHT22;11564;50.920;11.612;2022-07-23T05:22:49;16.70;99.90
22795;DHT22;11564;50.920;11.612;2022-07-23T05:25:15;16.90;99.90
22795;DHT22;11564;50.920;11.612;2022-07-23T05:27:40;16.70;99.90
22795;DHT22;11564;50.920;11.612;2022-07-23T05:30:07;16.60;99.90
22795;DHT22;11564;50.920;11.612;2022-07-23T05:32:32;16.70;99.90
22795;DHT22;11564;50.920;11.612;2022-07-23T05:34:58;16.70;99.90
22795;DHT22;11564;50.920;11.612;2022-07-23T05:37:24;16.70;99.90
22795;DHT22;11564;50.920;11.612;2022-07-23T05:39:49;16.50;99.90
22795;DHT22;11564;50.920;11.612;2022-07-23T05:42:15;16.40;99.90
22795;DHT22;11564;50.920;11.612;2022-07-23T05:44:41;16.50;99.90
22795;DHT22;11564;50.920;11.612;2022-07-23T05:47:06;16.50;99.90
22795;DHT22;11564;50.920;11.612;2022-07-23T05:49:32;16.50;99.90
22795;DHT22;11564;50.920;11.612;2022-07-23T05:51:57;16.70;99.90
22795;DHT22;11564;50.920;11.612;2022-07-23T05:54:23;16.80;99.90
22795;DHT22;11564;50.920;11.612;2022-07-23T05:56:48;16.80;99.90
22795;DHT22;11564;50.920;11.612;2022-07-23T05:59:15;16.90;99.90
22795;DHT22;11564;50.920;11.612;2022-07-23T06:01:41;17.10;99.90
22795;DHT22;11564;50.920;11.612;2022-07-23T06:04:07;17.40;99.90
22795;DHT22;11564;50.920;11.612;2022-07-23T06:06:33;17.50;99.90
22795;DHT22;11564;50.920;11.612;2022-07-23T06:08:58;17.60;99.90
22795;DHT22;11564;50.920;11.612;2022-07-23T06:11:24;17.60;99.90
22795;DHT22;11564;50.920;11.612;2022-07-23T06:13:50;17.70;99.90
22795;DHT22;11564;50.920;11.612;2022-07-23T06:16:15;17.70;99.90
22795;DHT22;11564;50.920;11.612;2022-07-23T06:18:41;17.90;99.90
22795;DHT22;11564;50.920;11.612;2022-07-23T06:21:07;18.10;99.90
22795;DHT22;11564;50.920;11.612;2022-07-23T06:23:32;18.30;99.90
22795;DHT22;11564;50.920;11.612;2022-07-23T06:25:58;18.60;99.90
22795;DHT22;11564;50.920;11.612;2022-07-23T06:28:23;19.00;99.90
22795;DHT22;11564;50.920;11.612;2022-07-23T06:30:49;19.20;99.90
22795;DHT22;11564;50.920;11.612;2022-07-23T06:33:15;19.40;99.90
22795;DHT22;11564;50.920;11.612;2022-07-23T06:35:40;19.40;99.90
22795;DHT22;11564;50.920;11.612;2022-07-23T06:38:06;19.30;99.90
22795;DHT22;11564;50.920;11.612;2022-07-23T06:40:31;19.20;99.90
22795;DHT22;11564;50.920;11.612;2022-07-23T06:42:57;19.10;99.90
22795;DHT22;11564;50.920;11.612;2022-07-23T06:45:23;19.30;99.90
22795;DHT22;11564;50.920;11.612;2022-07-23T06:47:48;19.40;99.90
22795;DHT22;11564;50.920;11.612;2022-07-23T06:50:14;19.40;99.90
22795;DHT22;11564;50.920;11.612;2022-07-23T06:52:39;19.40;99.90
22795;DHT22;11564;50.920;11.612;2022-07-23T06:55:05;19.40;99.90
22795;DHT22;11564;50.920;11.612;2022-07-23T06:57:31;19.30;99.90
22795;DHT22;11564;50.920;11.612;2022-07-23T06:59:57;19.20;99.90
22795;DHT22;11564;50.920;11.612;2022-07-23T07:02:22;19.00;99.90
22795;DHT22;11564;50.920;11.612;2022-07-23T07:04:49;18.90;99.90
22795;DHT22;11564;50.920;11.612;2022-07-23T07:07:16;18.60;99.90
22795;DHT22;11564;50.920;11.612;2022-07-23T07:09:42;18.50;99.90
22795;DHT22;11564;50.920;11.612;2022-07-23T07:12:08;18.60;99.90
22795;DHT22;11564;50.920;11.612;2022-07-23T07:14:33;18.60;99.90
22795;DHT22;11564;50.920;11.612;2022-07-23T07:16:59;18.90;99.90
22795;DHT22;11564;50.920;11.612;2022-07-23T07:19:24;19.30;99.90
22795;DHT22;11564;50.920;11.612;2022-07-23T07:21:50;19.50;99.90
22795;DHT22;11564;50.920;11.612;2022-07-23T07:24:16;19.90;99.90
22795;DHT22;11564;50.920;11.612;2022-07-23T07:26:41;20.10;99.90
22795;DHT22;11564;50.920;11.612;2022-07-23T07:29:07;20.30;99.90
22795;DHT22;11564;50.920;11.612;2022-07-23T07:31:32;20.50;99.90
22795;DHT22;11564;50.920;11.612;2022-07-23T07:33:58;20.60;99.90
22795;DHT22;11564;50.920;11.612;2022-07-23T07:36:24;20.00;99.90
22795;DHT22;11564;50.920;11.612;2022-07-23T07:38:50;19.90;99.90
22795;DHT22;11564;50.920;11.612;2022-07-23T07:41:16;20.00;99.90
22795;DHT22;11564;50.920;11.612;2022-07-23T07:43:41;20.00;99.90
22795;DHT22;11564;50.920;11.612;2022-07-23T07:46:08;20.30;99.90
22795;DHT22;11564;50.920;11.612;2022-07-23T07:48:36;20.10;99.90
22795;DHT22;11564;50.920;11.612;2022-07-23T07:51:03;19.90;99.90
22795;DHT22;11564;50.920;11.612;2022-07-23T07:53:29;20.10;99.90
22795;DHT22;11564;50.920;11.612;2022-07-23T07:55:54;20.30;99.90
22795;DHT22;11564;50.920;11.612;2022-07-23T07:58:20;20.60;99.90
22795;DHT22;11564;50.920;11.612;2022-07-23T08:00:46;20.70;99.90
22795;DHT22;11564;50.920;11.612;2022-07-23T08:03:11;20.50;99.90
22795;DHT22;11564;50.920;11.612;2022-07-23T08:05:37;20.40;99.90
22795;DHT22;11564;50.920;11.612;2022-07-23T08:08:03;20.80;99.90
22795;DHT22;11564;50.920;11.612;2022-07-23T08:10:29;20.20;99.90
22795;DHT22;11564;50.920;11.612;2022-07-23T08:12:57;20.10;99.90
22795;DHT22;11564;50.920;11.612;2022-07-23T08:15:25;20.60;99.90
22795;DHT22;11564;50.920;11.612;2022-07-23T08:17:51;20.40;99.90
22795;DHT22;11564;50.920;11.612;2022-07-23T08:20:18;20.20;99.90
22795;DHT22;11564;50.920;11.612;2022-07-23T08:25:16;20.60;99.90
22795;DHT22;11564;50.920;11.612;2022-07-23T08:27:42;20.50;99.90
22795;DHT22;11564;50.920;11.612;2022-07-23T08:30:08;20.40;99.90
22795;DHT22;11564;50.920;11.612;2022-07-23T08:32:54;20.30;99.90
22795;DHT22;11564;50.920;11.612;2022-07-23T08:35:31;20.20;99.90
22795;DHT22;11564;50.920;11.612;2022-07-23T08:37:58;20.20;99.90
22795;DHT22;11564;50.920;11.612;2022-07-23T08:40:29;20.40;99.90
22795;DHT22;11564;50.920;11.612;2022-07-23T08:42:56;20.20;99.90
22795;DHT22;11564;50.920;11.612;2022-07-23T08:45:23;20.30;99.90
22795;DHT22;11564;50.920;11.612;2022-07-23T08:47:54;20.10;99.90
22795;DHT22;11564;50.920;11.612;2022-07-23T08:50:21;20.40;99.90
22795;DHT22;11564;50.920;11.612;2022-07-23T08:52:49;20.70;99.90
22795;DHT22;11564;50.920;11.612;2022-07-23T08:55:17;20.90;99.90
22795;DHT22;11564;50.920;11.612;2022-07-23T08:57:43;21.20;99.90
22795;DHT22;11564;50.920;11.612;2022-07-23T09:00:09;21.70;99.90
22795;DHT22;11564;50.920;11.612;2022-07-23T09:02:42;22.10;99.10
22795;DHT22;11564;50.920;11.612;2022-07-23T09:05:09;22.40;98.30
22795;DHT22;11564;50.920;11.612;2022-07-23T09:07:37;22.50;96.50
22795;DHT22;11564;50.920;11.612;2022-07-23T09:10:08;22.50;96.20
22795;DHT22;11564;50.920;11.612;2022-07-23T09:12:34;23.20;95.70
22795;DHT22;11564;50.920;11.612;2022-07-23T09:15:09;23.60;94.30
22795;DHT22;11564;50.920;11.612;2022-07-23T09:17:40;23.80;92.90
22795;DHT22;11564;50.920;11.612;2022-07-23T09:20:11;23.90;93.10
22795;DHT22;11564;50.920;11.612;2022-07-23T09:22:37;24.40;92.30
22795;DHT22;11564;50.920;11.612;2022-07-23T09:25:11;24.60;91.50
22795;DHT22;11564;50.920;11.612;2022-07-23T09:30:16;25.40;88.20
22795;DHT22;11564;50.920;11.612;2022-07-23T09:32:42;25.30;88.40
22795;DHT22;11564;50.920;11.612;2022-07-23T09:35:08;26.00;86.50
22795;DHT22;11564;50.920;11.612;2022-07-23T09:37:34;26.40;85.00
22795;DHT22;11564;50.920;11.612;2022-07-23T09:40:10;26.30;84.20
22795;DHT22;11564;50.920;11.612;2022-07-23T09:42:54;25.90;82.70
22795;DHT22;11564;50.920;11.612;2022-07-23T09:45:20;25.30;83.10
22795;DHT22;11564;50.920;11.612;2022-07-23T09:47:46;24.70;85.70
22795;DHT22;11564;50.920;11.612;2022-07-23T09:50:12;24.50;85.70
22795;DHT22;11564;50.920;11.612;2022-07-23T09:52:49;23.80;87.10
22795;DHT22;11564;50.920;11.612;2022-07-23T09:55:16;22.60;90.40
22795;DHT22;11564;50.920;11.612;2022-07-23T09:57:42;22.20;91.20
22795;DHT22;11564;50.920;11.612;2022-07-23T10:00:10;22.10;91.50
22795;DHT22;11564;50.920;11.612;2022-07-23T10:02:37;22.00;92.00
22795;DHT22;11564;50.920;11.612;2022-07-23T10:05:04;22.10;91.70
22795;DHT22;11564;50.920;11.612;2022-07-23T10:07:36;21.90;92.10
22795;DHT22;11564;50.920;11.612;2022-07-23T10:10:03;22.10;92.10
22795;DHT22;11564;50.920;11.612;2022-07-23T10:12:29;21.70;92.60
22795;DHT22;11564;50.920;11.612;2022-07-23T10:14:56;21.30;93.60
22795;DHT22;11564;50.920;11.612;2022-07-23T10:17:22;21.90;93.60
22795;DHT22;11564;50.920;11.612;2022-07-23T10:19:48;22.00;93.60
22795;DHT22;11564;50.920;11.612;2022-07-23T10:22:26;22.00;93.90
22795;DHT22;11564;50.920;11.612;2022-07-23T10:27:51;21.40;94.20
22795;DHT22;11564;50.920;11.612;2022-07-23T10:33:17;21.60;94.20
22795;DHT22;11564;50.920;11.612;2022-07-23T10:39:03;21.60;94.20
22795;DHT22;11564;50.920;11.612;2022-07-23T10:41:33;21.70;93.90
22795;DHT22;11564;50.920;11.612;2022-07-23T10:44:12;22.10;93.80
22795;DHT22;11564;50.920;11.612;2022-07-23T10:46:59;22.50;93.00
22795;DHT22;11564;50.920;11.612;2022-07-23T10:49:32;23.10;92.70
22795;DHT22;11564;50.920;11.612;2022-07-23T10:57:47;25.50;88.40
22795;DHT22;11564;50.920;11.612;2022-07-23T11:02:48;26.00;84.50
22795;DHT22;11564;50.920;11.612;2022-07-23T11:05:16;25.90;84.50
22795;DHT22;11564;50.920;11.612;2022-07-23T11:11:07;25.80;83.30
22795;DHT22;11564;50.920;11.612;2022-07-23T11:13:41;25.90;83.10
22795;DHT22;11564;50.920;11.612;2022-07-23T11:16:24;25.90;83.00
22795;DHT22;11564;50.920;11.612;2022-07-23T11:18:55;25.00;83.20
22795;DHT22;11564;50.920;11.612;2022-07-23T11:24:28;25.00;83.90
22795;DHT22;11564;50.920;11.612;2022-07-23T11:26:55;24.50;84.30
22795;DHT22;11564;50.920;11.612;2022-07-23T11:32:08;26.00;83.20
22795;DHT22;11564;50.920;11.612;2022-07-23T11:34:45;26.60;80.60
22795;DHT22;11564;50.920;11.612;2022-07-23T11:37:37;25.60;81.10
22795;DHT22;11564;50.920;11.612;2022-07-23T11:40:08;25.90;81.40
22795;DHT22;11564;50.920;11.612;2022-07-23T11:42:36;25.60;82.00
22795;DHT22;11564;50.920;11.612;2022-07-23T11:45:03;26.10;82.00
22795;DHT22;11564;50.920;11.612;2022-07-23T11:47:28;25.90;80.30
22795;DHT22;11564;50.920;11.612;2022-07-23T11:49:56;26.40;81.00
22795;DHT22;11564;50.920;11.612;2022-07-23T11:52:22;26.70;79.50
22795;DHT22;11564;50.920;11.612;2022-07-23T11:54:56;25.50;82.20
22795;DHT22;11564;50.920;11.612;2022-07-23T11:57:31;25.00;83.20
22795;DHT22;11564;50.920;11.612;2022-07-23T12:00:04;25.60;82.50
22795;DHT22;11564;50.920;11.612;2022-07-23T12:02:30;25.80;81.80
22795;DHT22;11564;50.920;11.612;2022-07-23T12:04:56;25.10;82.70
22795;DHT22;11564;50.920;11.612;2022-07-23T12:07:36;24.40;83.30
22795;DHT22;11564;50.920;11.612;2022-07-23T12:10:12;24.00;85.80
22795;DHT22;11564;50.920;11.612;2022-07-23T12:12:59;24.30;85.50
22795;DHT22;11564;50.920;11.612;2022-07-23T12:15:43;24.50;84.20
22795;DHT22;11564;50.920;11.612;2022-07-23T12:18:11;24.00;85.30
22795;DHT22;11564;50.920;11.612;2022-07-23T12:20:40;24.50;84.80
22795;DHT22;11564;50.920;11.612;2022-07-23T12:23:08;24.20;84.60
22795;DHT22;11564;50.920;11.612;2022-07-23T12:25:37;24.10;86.00
22795;DHT22;11564;50.920;11.612;2022-07-23T12:28:06;24.40;85.10
22795;DHT22;11564;50.920;11.612;2022-07-23T12:30:42;24.50;85.20
22795;DHT22;11564;50.920;11.612;2022-07-23T12:33:11;24.20;85.00
22795;DHT22;11564;50.920;11.612;2022-07-23T12:35:40;24.50;85.10
22795;DHT22;11564;50.920;11.612;2022-07-23T12:38:15;24.50;84.00
22795;DHT22;11564;50.920;11.612;2022-07-23T12:40:46;24.40;83.90
22795;DHT22;11564;50.920;11.612;2022-07-23T12:43:33;25.50;83.30
22795;DHT22;11564;50.920;11.612;2022-07-23T12:46:03;25.70;80.80
22795;DHT22;11564;50.920;11.612;2022-07-23T12:48:31;25.70;80.10
22795;DHT22;11564;50.920;11.612;2022-07-23T12:53:42;25.10;81.20
22795;DHT22;11564;50.920;11.612;2022-07-23T12:56:15;25.50;80.80
22795;DHT22;11564;50.920;11.612;2022-07-23T12:58:50;25.40;80.20
22795;DHT22;11564;50.920;11.612;2022-07-23T13:04:05;26.50;78.10
22795;DHT22;11564;50.920;11.612;2022-07-23T13:09:06;26.40;77.20
22795;DHT22;11564;50.920;11.612;2022-07-23T13:11:32;26.80;78.10
22795;DHT22;11564;50.920;11.612;2022-07-23T13:13:59;26.40;77.20
22795;DHT22;11564;50.920;11.612;2022-07-23T13:16:26;26.30;77.50
22795;DHT22;11564;50.920;11.612;2022-07-23T13:18:52;26.50;76.70
22795;DHT22;11564;50.920;11.612;2022-07-23T13:21:18;27.20;75.10
22795;DHT22;11564;50.920;11.612;2022-07-23T13:23:43;28.20;72.70
22795;DHT22;11564;50.920;11.612;2022-07-23T13:26:09;27.60;72.80
22795;DHT22;11564;50.920;11.612;2022-07-23T13:28:35;28.50;71.70
22795;DHT22;11564;50.920;11.612;2022-07-23T13:31:00;31.30;64.40
22795;DHT22;11564;50.920;11.612;2022-07-23T13:33:26;34.10;58.90
22795;DHT22;11564;50.920;11.612;2022-07-23T13:35:52;35.50;54.90
22795;DHT22;11564;50.920;11.612;2022-07-23T13:38:19;37.00;51.10
22795;DHT22;11564;50.920;11.612;2022-07-23T13:40:47;37.30;50.10
22795;DHT22;11564;50.920;11.612;2022-07-23T13:43:15;38.10;47.60
22795;DHT22;11564;50.920;11.612;2022-07-23T13:45:42;36.80;47.80
22795;DHT22;11564;50.920;11.612;2022-07-23T13:48:08;39.00;47.20
22795;DHT22;11564;50.920;11.612;2022-07-23T13:50:35;38.90;44.30
22795;DHT22;11564;50.920;11.612;2022-07-23T13:53:05;38.90;44.10
22795;DHT22;11564;50.920;11.612;2022-07-23T13:55:31;37.60;45.80
22795;DHT22;11564;50.920;11.612;2022-07-23T13:57:58;37.90;45.10
22795;DHT22;11564;50.920;11.612;2022-07-23T14:00:24;38.40;43.20
22795;DHT22;11564;50.920;11.612;2022-07-23T14:02:50;37.40;45.50
22795;DHT22;11564;50.920;11.612;2022-07-23T14:05:15;38.00;44.10
22795;DHT22;11564;50.920;11.612;2022-07-23T14:07:41;37.80;44.60
22795;DHT22;11564;50.920;11.612;2022-07-23T14:10:10;39.00;42.30
22795;DHT22;11564;50.920;11.612;2022-07-23T14:12:36;41.50;40.50
22795;DHT22;11564;50.920;11.612;2022-07-23T14:15:04;39.00;41.20
22795;DHT22;11564;50.920;11.612;2022-07-23T14:17:30;39.30;41.90
22795;DHT22;11564;50.920;11.612;2022-07-23T14:19:57;38.30;42.50
22795;DHT22;11564;50.920;11.612;2022-07-23T14:22:22;38.20;43.00
22795;DHT22;11564;50.920;11.612;2022-07-23T14:24:49;38.60;41.50
22795;DHT22;11564;50.920;11.612;2022-07-23T14:27:15;37.00;43.10
22795;DHT22;11564;50.920;11.612;2022-07-23T14:29:40;37.50;43.60
22795;DHT22;11564;50.920;11.612;2022-07-23T14:32:06;37.30;44.50
22795;DHT22;11564;50.920;11.612;2022-07-23T14:34:32;36.70;44.10
22795;DHT22;11564;50.920;11.612;2022-07-23T14:36:59;35.40;45.70
22795;DHT22;11564;50.920;11.612;2022-07-23T14:39:25;35.30;45.90
22795;DHT22;11564;50.920;11.612;2022-07-23T14:41:50;34.40;46.30
22795;DHT22;11564;50.920;11.612;2022-07-23T14:44:16;34.60;47.30
22795;DHT22;11564;50.920;11.612;2022-07-23T14:46:42;36.60;44.80
22795;DHT22;11564;50.920;11.612;2022-07-23T14:49:07;37.10;43.70
22795;DHT22;11564;50.920;11.612;2022-07-23T14:51:33;38.20;42.80
22795;DHT22;11564;50.920;11.612;2022-07-23T14:53:59;40.10;41.30
22795;DHT22;11564;50.920;11.612;2022-07-23T14:56:24;38.90;41.00
22795;DHT22;11564;50.920;11.612;2022-07-23T14:58:50;40.80;39.00
22795;DHT22;11564;50.920;11.612;2022-07-23T15:01:16;39.10;41.40
22795;DHT22;11564;50.920;11.612;2022-07-23T15:03:41;39.00;41.60
22795;DHT22;11564;50.920;11.612;2022-07-23T15:06:07;38.40;41.30
22795;DHT22;11564;50.920;11.612;2022-07-23T15:08:33;37.60;43.00
22795;DHT22;11564;50.920;11.612;2022-07-23T15:10:59;41.70;38.90
22795;DHT22;11564;50.920;11.612;2022-07-23T15:13:24;43.00;37.40
22795;DHT22;11564;50.920;11.612;2022-07-23T15:15:50;42.90;37.40
22795;DHT22;11564;50.920;11.612;2022-07-23T15:18:16;43.40;36.90
22795;DHT22;11564;50.920;11.612;2022-07-23T15:20:41;43.30;36.80
22795;DHT22;11564;50.920;11.612;2022-07-23T15:23:07;38.40;39.40
22795;DHT22;11564;50.920;11.612;2022-07-23T15:25:33;34.60;44.50
22795;DHT22;11564;50.920;11.612;2022-07-23T15:27:59;34.30;46.40
22795;DHT22;11564;50.920;11.612;2022-07-23T15:30:26;33.90;46.00
22795;DHT22;11564;50.920;11.612;2022-07-23T15:32:51;30.80;51.10
22795;DHT22;11564;50.920;11.612;2022-07-23T15:35:17;31.10;52.10
22795;DHT22;11564;50.920;11.612;2022-07-23T15:37:43;31.90;51.00
22795;DHT22;11564;50.920;11.612;2022-07-23T15:40:09;32.60;48.80
22795;DHT22;11564;50.920;11.612;2022-07-23T15:42:35;33.00;49.90
22795;DHT22;11564;50.920;11.612;2022-07-23T15:45:01;34.20;47.60
22795;DHT22;11564;50.920;11.612;2022-07-23T15:47:27;33.50;46.70
22795;DHT22;11564;50.920;11.612;2022-07-23T15:49:52;31.80;50.00
22795;DHT22;11564;50.920;11.612;2022-07-23T15:52:18;31.90;50.30
22795;DHT22;11564;50.920;11.612;2022-07-23T15:54:43;33.40;49.30